TVF7304 LFRS-DAOO
Flight info
| Callsign | TVF7304 |
|---|---|
| Flight time | 2h 11m |
| Altitude | 25000 |
| Route | LUGEN UM184 TUPAR/N0443F330 DCT CNA DCT SECHE DCT AGN/N0452F350 DCT ANETO DCT TURUV DCT GRAUS DCT LOBAR DCT SEROX DCT CASPE DCT MLA DCT CRETA N860 RIMES DCT SAURA DCT TATOS DCT PLANA DCT VLC DCT RIPUX DCT SUMMO DCT MAGAL DCT LIMTU DCT RINDI DCT HAMRA UA34 MOS |
| Aircraft | B738/M-SDFGHIJ1RWXY/LB1 |
Departure
| Time | 2026-05-04 13:39 |
|---|---|
| Airport | Nantes Atlantique Airport (LFRS) |
Arrival
| Time | 2026-05-04 15:50 |
|---|---|
| Airport | Oran Es-Sénia (Ahmed Ben Bella) International Airport (DAOO) |
| Time | Latitude | Longitude | Altitude | Speed | Heading |
|---|---|---|---|---|---|
| 2026-05-04 13:11 | 47.15512 | -1.60160 | 92 ft | 0 kts | 207° |
| 2026-05-04 13:26 | 47.15515 | -1.60159 | 92 ft | 2 kts | 207° |
| 2026-05-04 13:26 | 47.15530 | -1.60147 | 89 ft | 4 kts | 207° |
| 2026-05-04 13:27 | 47.15550 | -1.60132 | 90 ft | 4 kts | 183° |
| 2026-05-04 13:27 | 47.15566 | -1.60146 | 90 ft | 4 kts | 120° |
| 2026-05-04 13:27 | 47.15578 | -1.60178 | 90 ft | 4 kts | 117° |
| 2026-05-04 13:27 | 47.15590 | -1.60214 | 90 ft | 4 kts | 116° |
| 2026-05-04 13:28 | 47.15602 | -1.60249 | 91 ft | 4 kts | 117° |
| 2026-05-04 13:28 | 47.15612 | -1.60277 | 91 ft | 3 kts | 123° |
| 2026-05-04 13:28 | 47.15628 | -1.60303 | 91 ft | 2 kts | 138° |
| 2026-05-04 13:28 | 47.15630 | -1.60304 | 90 ft | 1 kts | 138° |
| 2026-05-04 13:32 | 47.15629 | -1.60303 | 90 ft | 1 kts | 138° |
| 2026-05-04 13:32 | 47.15604 | -1.60280 | 90 ft | 8 kts | 157° |
| 2026-05-04 13:32 | 47.15537 | -1.60307 | 92 ft | 12 kts | 226° |
| 2026-05-04 13:33 | 47.15530 | -1.60422 | 92 ft | 12 kts | 299° |
| 2026-05-04 13:33 | 47.15576 | -1.60521 | 90 ft | 10 kts | 304° |
| 2026-05-04 13:33 | 47.15570 | -1.60608 | 92 ft | 9 kts | 224° |
| 2026-05-04 13:33 | 47.15514 | -1.60656 | 90 ft | 9 kts | 208° |
| 2026-05-04 13:34 | 47.15457 | -1.60699 | 90 ft | 9 kts | 207° |
| 2026-05-04 13:34 | 47.15402 | -1.60741 | 91 ft | 9 kts | 207° |
| 2026-05-04 13:34 | 47.15332 | -1.60794 | 91 ft | 15 kts | 207° |
| 2026-05-04 13:34 | 47.15228 | -1.60874 | 91 ft | 17 kts | 207° |
| 2026-05-04 13:35 | 47.15122 | -1.60954 | 90 ft | 17 kts | 207° |
| 2026-05-04 13:35 | 47.14922 | -1.61105 | 92 ft | 16 kts | 207° |
| 2026-05-04 13:35 | 47.14816 | -1.61188 | 90 ft | 19 kts | 208° |
| 2026-05-04 13:36 | 47.14683 | -1.61287 | 90 ft | 23 kts | 207° |
| 2026-05-04 13:36 | 47.14530 | -1.61406 | 89 ft | 25 kts | 207° |
| 2026-05-04 13:36 | 47.14378 | -1.61520 | 86 ft | 24 kts | 207° |
| 2026-05-04 13:36 | 47.14245 | -1.61623 | 87 ft | 20 kts | 208° |
| 2026-05-04 13:37 | 47.14167 | -1.61707 | 86 ft | 11 kts | 246° |
| 2026-05-04 13:37 | 47.14142 | -1.61816 | 84 ft | 11 kts | 258° |
| 2026-05-04 13:37 | 47.14163 | -1.61921 | 86 ft | 11 kts | 315° |
| 2026-05-04 13:37 | 47.14232 | -1.61900 | 84 ft | 11 kts | 26° |
| 2026-05-04 13:38 | 47.14301 | -1.61847 | 84 ft | 15 kts | 26° |
| 2026-05-04 13:38 | 47.14498 | -1.61698 | 91 ft | 65 kts | 27° |
| 2026-05-04 13:38 | 47.15134 | -1.61213 | 86 ft | 139 kts | 27° |
| 2026-05-04 13:38 | 47.16150 | -1.60424 | 248 ft | 186 kts | 27° |
| 2026-05-04 13:39 | 47.17345 | -1.59531 | 1065 ft | 195 kts | 32° |
| 2026-05-04 13:39 | 47.18183 | -1.58034 | 2091 ft | 198 kts | 71° |
| 2026-05-04 13:39 | 47.18202 | -1.55906 | 2338 ft | 225 kts | 112° |
| 2026-05-04 13:39 | 47.17156 | -1.54160 | 2737 ft | 238 kts | 154° |
| 2026-05-04 13:40 | 47.15496 | -1.53511 | 3162 ft | 257 kts | 169° |
| 2026-05-04 13:40 | 47.13743 | -1.52839 | 3909 ft | 264 kts | 162° |
| 2026-05-04 13:40 | 47.11996 | -1.51963 | 4749 ft | 266 kts | 160° |
| 2026-05-04 13:40 | 47.10253 | -1.51000 | 5562 ft | 269 kts | 159° |
| 2026-05-04 13:41 | 47.08496 | -1.49994 | 6350 ft | 273 kts | 159° |
| 2026-05-04 13:41 | 47.06768 | -1.48900 | 7112 ft | 276 kts | 149° |
| 2026-05-04 13:41 | 47.05237 | -1.47120 | 7885 ft | 279 kts | 137° |
| 2026-05-04 13:42 | 47.02344 | -1.43216 | 9359 ft | 286 kts | 137° |
| 2026-05-04 13:42 | 47.00887 | -1.41267 | 10086 ft | 289 kts | 138° |
| 2026-05-04 13:42 | 46.99364 | -1.39247 | 10487 ft | 306 kts | 138° |
| 2026-05-04 13:42 | 46.97722 | -1.37085 | 10660 ft | 328 kts | 138° |
| 2026-05-04 13:43 | 46.95964 | -1.34781 | 10869 ft | 349 kts | 138° |
| 2026-05-04 13:43 | 46.94127 | -1.32385 | 11372 ft | 358 kts | 138° |
| 2026-05-04 13:43 | 46.92260 | -1.29954 | 12040 ft | 361 kts | 138° |
| 2026-05-04 13:43 | 46.90375 | -1.27505 | 12737 ft | 364 kts | 138° |
| 2026-05-04 13:44 | 46.88475 | -1.25038 | 13391 ft | 367 kts | 138° |
| 2026-05-04 13:44 | 46.86556 | -1.22550 | 14024 ft | 371 kts | 138° |
| 2026-05-04 13:44 | 46.84618 | -1.20040 | 14644 ft | 374 kts | 139° |
| 2026-05-04 13:44 | 46.82662 | -1.17507 | 15249 ft | 377 kts | 138° |
| 2026-05-04 13:45 | 46.80689 | -1.14950 | 15848 ft | 381 kts | 138° |
| 2026-05-04 13:45 | 46.78703 | -1.12376 | 16430 ft | 384 kts | 138° |
| 2026-05-04 13:45 | 46.76694 | -1.09774 | 17001 ft | 387 kts | 138° |
| 2026-05-04 13:45 | 46.74671 | -1.07159 | 17553 ft | 391 kts | 138° |
| 2026-05-04 13:46 | 46.72628 | -1.04520 | 18101 ft | 394 kts | 139° |
| 2026-05-04 13:46 | 46.70570 | -1.01865 | 18628 ft | 397 kts | 139° |
| 2026-05-04 13:46 | 46.68495 | -0.99191 | 19148 ft | 400 kts | 139° |
| 2026-05-04 13:46 | 46.66403 | -0.96499 | 19652 ft | 403 kts | 139° |
| 2026-05-04 13:47 | 46.64297 | -0.93793 | 20142 ft | 406 kts | 139° |
| 2026-05-04 13:47 | 46.62171 | -0.91061 | 20620 ft | 409 kts | 139° |
| 2026-05-04 13:47 | 46.60032 | -0.88316 | 21071 ft | 412 kts | 139° |
| 2026-05-04 13:47 | 46.57873 | -0.85548 | 21522 ft | 415 kts | 139° |
| 2026-05-04 13:48 | 46.55708 | -0.82762 | 21960 ft | 418 kts | 138° |
| 2026-05-04 13:48 | 46.53525 | -0.79948 | 22404 ft | 420 kts | 138° |
| 2026-05-04 13:48 | 46.51331 | -0.77120 | 22816 ft | 423 kts | 138° |
| 2026-05-04 13:48 | 46.49128 | -0.74285 | 23219 ft | 425 kts | 138° |
| 2026-05-04 13:49 | 46.46934 | -0.71467 | 23607 ft | 428 kts | 139° |
| 2026-05-04 13:49 | 46.44677 | -0.68631 | 23991 ft | 430 kts | 142° |
| 2026-05-04 13:49 | 46.42166 | -0.66252 | 24358 ft | 433 kts | 152° |
| 2026-05-04 13:49 | 46.39412 | -0.64509 | 24727 ft | 434 kts | 161° |
| 2026-05-04 13:50 | 46.36523 | -0.63172 | 25097 ft | 436 kts | 163° |
| 2026-05-04 13:50 | 46.33619 | -0.61878 | 25436 ft | 439 kts | 163° |
| 2026-05-04 13:50 | 46.30688 | -0.60578 | 25756 ft | 441 kts | 163° |
| 2026-05-04 13:50 | 46.27747 | -0.59261 | 26076 ft | 444 kts | 163° |
| 2026-05-04 13:51 | 46.24798 | -0.57928 | 26388 ft | 446 kts | 162° |
| 2026-05-04 13:51 | 46.21833 | -0.56577 | 26703 ft | 448 kts | 162° |
| 2026-05-04 13:51 | 46.18855 | -0.55214 | 26993 ft | 450 kts | 162° |
| 2026-05-04 13:51 | 46.15869 | -0.53844 | 27280 ft | 452 kts | 162° |
| 2026-05-04 13:52 | 46.09848 | -0.51084 | 27846 ft | 456 kts | 162° |
| 2026-05-04 13:52 | 46.06825 | -0.49701 | 28170 ft | 456 kts | 162° |
| 2026-05-04 13:52 | 46.03806 | -0.48323 | 28552 ft | 455 kts | 162° |
| 2026-05-04 13:53 | 46.00790 | -0.46947 | 28959 ft | 453 kts | 162° |
| 2026-05-04 13:53 | 45.97794 | -0.45582 | 29336 ft | 452 kts | 162° |
| 2026-05-04 13:53 | 45.94791 | -0.44216 | 29672 ft | 452 kts | 162° |
| 2026-05-04 13:54 | 45.88799 | -0.41495 | 30337 ft | 451 kts | 162° |
| 2026-05-04 13:54 | 45.85818 | -0.40143 | 30682 ft | 450 kts | 162° |
| 2026-05-04 13:54 | 45.79857 | -0.37445 | 31295 ft | 449 kts | 162° |
| 2026-05-04 13:55 | 45.76878 | -0.36100 | 31610 ft | 448 kts | 162° |
| 2026-05-04 13:55 | 45.70938 | -0.33421 | 32191 ft | 447 kts | 162° |
| 2026-05-04 13:55 | 45.67975 | -0.32086 | 32492 ft | 446 kts | 162° |
| 2026-05-04 13:56 | 45.65044 | -0.30658 | 32772 ft | 446 kts | 157° |
| 2026-05-04 13:56 | 45.62222 | -0.28829 | 33003 ft | 446 kts | 154° |
| 2026-05-04 13:57 | 45.53825 | -0.22862 | 32997 ft | 449 kts | 153° |
| 2026-05-04 13:58 | 45.42705 | -0.15105 | 33005 ft | 444 kts | 154° |
| 2026-05-04 13:58 | 45.34357 | -0.09379 | 33003 ft | 445 kts | 154° |
| 2026-05-04 13:59 | 45.28774 | -0.05562 | 33004 ft | 445 kts | 154° |
| 2026-05-04 14:00 | 45.20393 | 0.00157 | 33004 ft | 446 kts | 154° |
| 2026-05-04 14:00 | 45.12034 | 0.05843 | 33001 ft | 446 kts | 154° |
| 2026-05-04 14:01 | 45.06433 | 0.09642 | 33000 ft | 447 kts | 154° |
| 2026-05-04 14:02 | 44.98026 | 0.15329 | 33001 ft | 447 kts | 154° |
| 2026-05-04 14:02 | 44.92413 | 0.19115 | 33002 ft | 447 kts | 154° |
| 2026-05-04 14:03 | 44.86802 | 0.22893 | 32999 ft | 447 kts | 154° |
| 2026-05-04 14:03 | 44.81195 | 0.26659 | 33002 ft | 446 kts | 154° |
| 2026-05-04 14:04 | 44.72786 | 0.32292 | 33001 ft | 446 kts | 154° |
| 2026-05-04 14:04 | 44.67181 | 0.36036 | 33002 ft | 446 kts | 154° |
| 2026-05-04 14:05 | 44.58777 | 0.41635 | 33002 ft | 446 kts | 155° |
| 2026-05-04 14:06 | 44.53178 | 0.45355 | 33001 ft | 445 kts | 155° |
| 2026-05-04 14:06 | 44.47610 | 0.49047 | 33001 ft | 445 kts | 155° |
| 2026-05-04 14:07 | 44.42010 | 0.52749 | 33001 ft | 445 kts | 155° |
| 2026-05-04 14:07 | 44.36405 | 0.56424 | 33000 ft | 445 kts | 155° |
| 2026-05-04 14:08 | 44.30789 | 0.60092 | 33001 ft | 445 kts | 155° |
| 2026-05-04 14:08 | 44.25184 | 0.63748 | 33002 ft | 445 kts | 155° |
| 2026-05-04 14:09 | 44.16762 | 0.69229 | 33002 ft | 445 kts | 155° |
| 2026-05-04 14:10 | 44.08337 | 0.74694 | 33002 ft | 445 kts | 155° |
| 2026-05-04 14:10 | 44.02717 | 0.78330 | 33000 ft | 445 kts | 155° |
| 2026-05-04 14:11 | 43.97096 | 0.81959 | 33002 ft | 445 kts | 155° |
| 2026-05-04 14:11 | 43.88419 | 0.86361 | 33011 ft | 444 kts | 175° |
| 2026-05-04 14:12 | 43.85334 | 0.86431 | 33001 ft | 444 kts | 186° |
| 2026-05-04 14:12 | 43.82297 | 0.85750 | 33016 ft | 443 kts | 191° |
| 2026-05-04 14:13 | 43.73219 | 0.83190 | 32999 ft | 444 kts | 191° |
| 2026-05-04 14:13 | 43.67161 | 0.81521 | 33002 ft | 444 kts | 191° |
| 2026-05-04 14:14 | 43.61087 | 0.79889 | 33002 ft | 445 kts | 191° |
| 2026-05-04 14:14 | 43.51972 | 0.77467 | 33002 ft | 445 kts | 191° |
| 2026-05-04 14:15 | 43.39797 | 0.74242 | 33000 ft | 446 kts | 191° |
| 2026-05-04 14:16 | 43.31653 | 0.72091 | 33001 ft | 446 kts | 191° |
| 2026-05-04 14:17 | 43.22554 | 0.69694 | 33000 ft | 446 kts | 191° |
| 2026-05-04 14:18 | 43.13415 | 0.67294 | 33000 ft | 446 kts | 191° |
| 2026-05-04 14:19 | 43.01226 | 0.64104 | 32999 ft | 446 kts | 191° |
| 2026-05-04 14:19 | 42.95090 | 0.62503 | 33002 ft | 446 kts | 191° |
| 2026-05-04 14:20 | 42.89020 | 0.60922 | 33007 ft | 447 kts | 191° |
| 2026-05-04 14:20 | 42.82905 | 0.59332 | 33007 ft | 448 kts | 191° |
| 2026-05-04 14:21 | 42.73673 | 0.56935 | 33005 ft | 449 kts | 191° |
| 2026-05-04 14:21 | 42.67544 | 0.55353 | 33004 ft | 454 kts | 191° |
| 2026-05-04 14:22 | 42.61310 | 0.53759 | 33012 ft | 457 kts | 191° |
| 2026-05-04 14:22 | 42.55071 | 0.52165 | 32995 ft | 455 kts | 191° |
| 2026-05-04 14:23 | 42.45728 | 0.49779 | 32982 ft | 452 kts | 191° |
| 2026-05-04 14:24 | 42.39598 | 0.48216 | 32997 ft | 451 kts | 191° |
| 2026-05-04 14:24 | 42.33449 | 0.46652 | 33000 ft | 449 kts | 191° |
| 2026-05-04 14:25 | 42.27320 | 0.45088 | 33006 ft | 447 kts | 191° |
| 2026-05-04 14:25 | 42.18163 | 0.42752 | 33001 ft | 446 kts | 191° |
| 2026-05-04 14:26 | 42.12074 | 0.41202 | 33004 ft | 445 kts | 191° |
| 2026-05-04 14:26 | 42.05998 | 0.39657 | 32996 ft | 444 kts | 191° |
| 2026-05-04 14:27 | 41.99927 | 0.38117 | 33008 ft | 444 kts | 191° |
| 2026-05-04 14:27 | 41.93849 | 0.36585 | 33004 ft | 444 kts | 191° |
| 2026-05-04 14:28 | 41.87768 | 0.35059 | 33003 ft | 444 kts | 191° |
| 2026-05-04 14:28 | 41.81695 | 0.33533 | 33000 ft | 444 kts | 191° |
| 2026-05-04 14:29 | 41.69535 | 0.30498 | 33001 ft | 444 kts | 191° |
| 2026-05-04 14:30 | 41.63462 | 0.28998 | 33001 ft | 444 kts | 191° |
| 2026-05-04 14:31 | 41.54353 | 0.26747 | 32999 ft | 444 kts | 191° |
| 2026-05-04 14:32 | 41.42218 | 0.23753 | 33002 ft | 443 kts | 191° |
| 2026-05-04 14:32 | 41.36148 | 0.22260 | 33000 ft | 443 kts | 191° |
| 2026-05-04 14:33 | 41.30082 | 0.20743 | 33002 ft | 443 kts | 191° |
| 2026-05-04 14:33 | 41.24023 | 0.19211 | 33001 ft | 444 kts | 191° |
| 2026-05-04 14:34 | 41.17951 | 0.17721 | 33000 ft | 444 kts | 191° |
| 2026-05-04 14:34 | 41.11889 | 0.16161 | 32996 ft | 444 kts | 194° |
| 2026-05-04 14:35 | 41.05982 | 0.13830 | 33004 ft | 443 kts | 198° |
| 2026-05-04 14:35 | 41.00091 | 0.11367 | 33000 ft | 444 kts | 197° |
| 2026-05-04 14:36 | 40.94182 | 0.08981 | 33001 ft | 444 kts | 197° |
| 2026-05-04 14:36 | 40.88266 | 0.06629 | 33001 ft | 444 kts | 197° |
| 2026-05-04 14:37 | 40.82341 | 0.04260 | 33003 ft | 445 kts | 197° |
| 2026-05-04 14:37 | 40.76411 | 0.01872 | 33000 ft | 446 kts | 197° |
| 2026-05-04 14:38 | 40.70482 | -0.00513 | 33003 ft | 446 kts | 197° |
| 2026-05-04 14:38 | 40.64535 | -0.02899 | 32999 ft | 447 kts | 197° |
| 2026-05-04 14:39 | 40.58579 | -0.05285 | 33005 ft | 448 kts | 197° |
| 2026-05-04 14:39 | 40.52610 | -0.07661 | 32998 ft | 449 kts | 197° |
| 2026-05-04 14:40 | 40.43639 | -0.11195 | 33000 ft | 449 kts | 197° |
| 2026-05-04 14:40 | 40.37647 | -0.13556 | 33005 ft | 450 kts | 197° |
| 2026-05-04 14:41 | 40.31694 | -0.15901 | 32999 ft | 449 kts | 197° |
| 2026-05-04 14:42 | 40.19740 | -0.20605 | 32997 ft | 447 kts | 197° |
| 2026-05-04 14:42 | 40.13788 | -0.22958 | 32996 ft | 446 kts | 197° |
| 2026-05-04 14:43 | 40.07861 | -0.25299 | 32997 ft | 444 kts | 197° |
| 2026-05-04 14:43 | 40.01948 | -0.27629 | 33002 ft | 443 kts | 197° |
| 2026-05-04 14:44 | 39.96056 | -0.29924 | 32998 ft | 442 kts | 197° |
| 2026-05-04 14:44 | 39.90162 | -0.32186 | 32996 ft | 441 kts | 197° |
| 2026-05-04 14:45 | 39.84287 | -0.34458 | 33006 ft | 441 kts | 197° |
| 2026-05-04 14:45 | 39.78413 | -0.36746 | 33007 ft | 441 kts | 197° |
| 2026-05-04 14:46 | 39.72529 | -0.39035 | 33003 ft | 441 kts | 197° |
| 2026-05-04 14:46 | 39.66643 | -0.41319 | 33001 ft | 442 kts | 197° |
| 2026-05-04 14:47 | 39.60746 | -0.43604 | 33006 ft | 442 kts | 197° |
| 2026-05-04 14:47 | 39.54843 | -0.45887 | 32999 ft | 443 kts | 197° |
| 2026-05-04 14:48 | 39.48863 | -0.47756 | 32997 ft | 443 kts | 185° |
| 2026-05-04 14:48 | 39.42727 | -0.47390 | 33011 ft | 443 kts | 172° |
| 2026-05-04 14:49 | 39.36639 | -0.46180 | 33000 ft | 443 kts | 171° |
| 2026-05-04 14:49 | 39.30538 | -0.45038 | 33000 ft | 443 kts | 172° |
| 2026-05-04 14:50 | 39.24440 | -0.43948 | 33000 ft | 443 kts | 172° |
| 2026-05-04 14:50 | 39.18340 | -0.42852 | 33001 ft | 442 kts | 172° |
| 2026-05-04 14:51 | 39.12243 | -0.41750 | 33002 ft | 442 kts | 172° |
| 2026-05-04 14:51 | 39.06150 | -0.40654 | 33004 ft | 442 kts | 172° |
| 2026-05-04 14:52 | 39.00056 | -0.39562 | 33000 ft | 442 kts | 172° |
| 2026-05-04 14:52 | 38.93960 | -0.38471 | 33004 ft | 442 kts | 172° |
| 2026-05-04 14:53 | 38.87903 | -0.37389 | 33000 ft | 443 kts | 172° |
| 2026-05-04 14:53 | 38.81803 | -0.36301 | 33002 ft | 443 kts | 172° |
| 2026-05-04 14:54 | 38.75694 | -0.35214 | 33000 ft | 443 kts | 172° |
| 2026-05-04 14:54 | 38.69572 | -0.34126 | 33008 ft | 444 kts | 172° |
| 2026-05-04 14:55 | 38.63441 | -0.33039 | 32996 ft | 445 kts | 172° |
| 2026-05-04 14:55 | 38.57299 | -0.31952 | 33010 ft | 446 kts | 172° |
| 2026-05-04 14:56 | 38.51148 | -0.30865 | 33001 ft | 446 kts | 172° |
| 2026-05-04 14:56 | 38.45002 | -0.29781 | 33001 ft | 446 kts | 172° |
| 2026-05-04 14:57 | 38.38867 | -0.28701 | 32997 ft | 444 kts | 172° |
| 2026-05-04 14:57 | 38.32758 | -0.27622 | 32999 ft | 442 kts | 172° |
| 2026-05-04 14:58 | 38.26668 | -0.26534 | 33001 ft | 441 kts | 172° |
| 2026-05-04 14:58 | 38.21591 | -0.25629 | 33000 ft | 440 kts | 172° |
| 2026-05-04 14:59 | 38.14556 | -0.24382 | 33001 ft | 439 kts | 172° |
| 2026-05-04 15:00 | 38.06473 | -0.22950 | 33001 ft | 438 kts | 172° |
| 2026-05-04 15:00 | 38.00433 | -0.21884 | 33001 ft | 438 kts | 172° |
| 2026-05-04 15:01 | 37.91362 | -0.20295 | 33001 ft | 439 kts | 172° |
| 2026-05-04 15:01 | 37.85309 | -0.19242 | 33001 ft | 440 kts | 172° |
| 2026-05-04 15:02 | 37.79244 | -0.18190 | 33001 ft | 440 kts | 172° |
| 2026-05-04 15:02 | 37.73167 | -0.17137 | 33002 ft | 441 kts | 172° |
| 2026-05-04 15:03 | 37.67082 | -0.16084 | 33001 ft | 442 kts | 172° |
| 2026-05-04 15:03 | 37.60990 | -0.15031 | 33003 ft | 442 kts | 172° |
| 2026-05-04 15:04 | 37.54902 | -0.13981 | 32999 ft | 440 kts | 172° |
| 2026-05-04 15:04 | 37.51911 | -0.13466 | 32979 ft | 427 kts | 172° |
| 2026-05-04 15:04 | 37.48995 | -0.12964 | 32711 ft | 420 kts | 172° |
| 2026-05-04 15:05 | 37.46130 | -0.12472 | 32443 ft | 412 kts | 172° |
| 2026-05-04 15:05 | 37.43293 | -0.11985 | 32045 ft | 410 kts | 172° |
| 2026-05-04 15:05 | 37.40518 | -0.11508 | 31685 ft | 406 kts | 172° |
| 2026-05-04 15:05 | 37.37726 | -0.11030 | 31308 ft | 403 kts | 172° |
| 2026-05-04 15:06 | 37.34954 | -0.10555 | 30930 ft | 401 kts | 172° |
| 2026-05-04 15:06 | 37.32202 | -0.10083 | 30557 ft | 398 kts | 172° |
| 2026-05-04 15:06 | 37.29431 | -0.09609 | 30178 ft | 395 kts | 172° |
| 2026-05-04 15:07 | 37.24061 | -0.08692 | 29435 ft | 390 kts | 172° |
| 2026-05-04 15:07 | 37.21384 | -0.08235 | 29046 ft | 387 kts | 172° |
| 2026-05-04 15:07 | 37.18725 | -0.07781 | 28666 ft | 384 kts | 172° |
| 2026-05-04 15:07 | 37.16084 | -0.07331 | 28292 ft | 382 kts | 172° |
| 2026-05-04 15:08 | 37.13461 | -0.06884 | 27909 ft | 379 kts | 172° |
| 2026-05-04 15:08 | 37.10855 | -0.06440 | 27534 ft | 377 kts | 172° |
| 2026-05-04 15:08 | 37.08267 | -0.05999 | 27161 ft | 374 kts | 172° |
| 2026-05-04 15:08 | 37.05696 | -0.05559 | 26790 ft | 372 kts | 172° |
| 2026-05-04 15:09 | 37.03142 | -0.05123 | 26422 ft | 369 kts | 172° |
| 2026-05-04 15:09 | 37.00604 | -0.04691 | 26046 ft | 367 kts | 172° |
| 2026-05-04 15:09 | 36.98088 | -0.04263 | 25688 ft | 365 kts | 172° |
| 2026-05-04 15:10 | 36.93092 | -0.03414 | 24969 ft | 360 kts | 172° |
| 2026-05-04 15:10 | 36.90617 | -0.02994 | 24610 ft | 358 kts | 172° |
| 2026-05-04 15:10 | 36.85714 | -0.02165 | 23900 ft | 353 kts | 173° |
| 2026-05-04 15:11 | 36.83283 | -0.01767 | 23549 ft | 351 kts | 173° |
| 2026-05-04 15:11 | 36.80867 | -0.01375 | 23198 ft | 349 kts | 173° |
| 2026-05-04 15:11 | 36.78466 | -0.00986 | 22847 ft | 347 kts | 173° |
| 2026-05-04 15:11 | 36.76078 | -0.00600 | 22501 ft | 345 kts | 173° |
| 2026-05-04 15:12 | 36.73705 | -0.00216 | 22154 ft | 343 kts | 173° |
| 2026-05-04 15:12 | 36.71346 | 0.00165 | 21812 ft | 341 kts | 173° |
| 2026-05-04 15:12 | 36.69005 | 0.00544 | 21468 ft | 339 kts | 173° |
| 2026-05-04 15:12 | 36.66672 | 0.00922 | 20869 ft | 337 kts | 178° |
| 2026-05-04 15:13 | 36.64377 | 0.01297 | 20670 ft | 329 kts | 180° |
| 2026-05-04 15:13 | 36.62123 | 0.01664 | 20409 ft | 324 kts | 180° |
| 2026-05-04 15:13 | 36.59908 | 0.02024 | 20179 ft | 318 kts | 181° |
| 2026-05-04 15:13 | 36.57721 | 0.02377 | 19858 ft | 316 kts | 181° |
| 2026-05-04 15:14 | 36.55552 | 0.02726 | 19555 ft | 313 kts | 181° |
| 2026-05-04 15:14 | 36.53401 | 0.03071 | 19248 ft | 310 kts | 181° |
| 2026-05-04 15:14 | 36.51266 | 0.03414 | 18941 ft | 308 kts | 181° |
| 2026-05-04 15:14 | 36.49145 | 0.03755 | 18618 ft | 306 kts | 181° |
| 2026-05-04 15:15 | 36.47041 | 0.04093 | 18319 ft | 305 kts | 181° |
| 2026-05-04 15:15 | 36.44945 | 0.04429 | 17984 ft | 303 kts | 181° |
| 2026-05-04 15:15 | 36.42863 | 0.04763 | 17659 ft | 300 kts | 181° |
| 2026-05-04 15:16 | 36.38752 | 0.05423 | 17063 ft | 296 kts | 181° |
| 2026-05-04 15:16 | 36.36714 | 0.05748 | 16756 ft | 295 kts | 181° |
| 2026-05-04 15:16 | 36.32665 | 0.06397 | 16171 ft | 292 kts | 181° |
| 2026-05-04 15:17 | 36.30660 | 0.06720 | 15876 ft | 289 kts | 181° |
| 2026-05-04 15:17 | 36.26682 | 0.07377 | 15355 ft | 289 kts | 181° |
| 2026-05-04 15:17 | 36.24697 | 0.07713 | 15119 ft | 295 kts | 180° |
| 2026-05-04 15:18 | 36.22642 | 0.08061 | 14878 ft | 301 kts | 180° |
| 2026-05-04 15:18 | 36.20561 | 0.08415 | 14642 ft | 302 kts | 180° |
| 2026-05-04 15:18 | 36.18483 | 0.08771 | 14407 ft | 301 kts | 180° |
| 2026-05-04 15:19 | 36.14347 | 0.09477 | 13936 ft | 299 kts | 180° |
| 2026-05-04 15:19 | 36.12286 | 0.09827 | 13691 ft | 299 kts | 180° |
| 2026-05-04 15:19 | 36.08209 | 0.10519 | 13151 ft | 292 kts | 180° |
| 2026-05-04 15:20 | 36.06206 | 0.10858 | 12850 ft | 289 kts | 180° |
| 2026-05-04 15:20 | 36.04219 | 0.11193 | 12553 ft | 287 kts | 180° |
| 2026-05-04 15:20 | 36.02252 | 0.11524 | 12266 ft | 284 kts | 179° |
| 2026-05-04 15:20 | 36.00301 | 0.11852 | 11971 ft | 282 kts | 179° |
| 2026-05-04 15:21 | 35.98362 | 0.12179 | 11694 ft | 281 kts | 179° |
| 2026-05-04 15:21 | 35.96430 | 0.12504 | 11385 ft | 280 kts | 179° |
| 2026-05-04 15:21 | 35.92602 | 0.13096 | 10791 ft | 273 kts | 187° |
| 2026-05-04 15:22 | 35.90824 | 0.12560 | 10515 ft | 259 kts | 211° |
| 2026-05-04 15:22 | 35.89383 | 0.11272 | 10250 ft | 254 kts | 226° |
| 2026-05-04 15:22 | 35.87641 | 0.07658 | 9931 ft | 242 kts | 243° |
| 2026-05-04 15:23 | 35.86939 | 0.05769 | 9641 ft | 242 kts | 244° |
| 2026-05-04 15:23 | 35.86244 | 0.03888 | 9369 ft | 241 kts | 244° |
| 2026-05-04 15:23 | 35.85553 | 0.02018 | 9100 ft | 240 kts | 244° |
| 2026-05-04 15:23 | 35.84860 | 0.00150 | 8826 ft | 239 kts | 244° |
| 2026-05-04 15:24 | 35.83484 | -0.03548 | 8319 ft | 236 kts | 244° |
| 2026-05-04 15:24 | 35.82118 | -0.07206 | 7803 ft | 234 kts | 245° |
| 2026-05-04 15:25 | 35.81439 | -0.09022 | 7548 ft | 232 kts | 245° |
| 2026-05-04 15:25 | 35.80763 | -0.10825 | 7294 ft | 231 kts | 245° |
| 2026-05-04 15:25 | 35.80091 | -0.12618 | 7043 ft | 230 kts | 245° |
| 2026-05-04 15:26 | 35.78758 | -0.16172 | 6547 ft | 228 kts | 245° |
| 2026-05-04 15:26 | 35.78095 | -0.17940 | 6288 ft | 226 kts | 245° |
| 2026-05-04 15:26 | 35.76414 | -0.21176 | 5780 ft | 225 kts | 243° |
| 2026-05-04 15:27 | 35.75770 | -0.22954 | 5554 ft | 231 kts | 248° |
| 2026-05-04 15:27 | 35.74520 | -0.26668 | 5288 ft | 236 kts | 247° |
| 2026-05-04 15:28 | 35.73635 | -0.29234 | 5131 ft | 226 kts | 246° |
| 2026-05-04 15:28 | 35.73215 | -0.30456 | 5056 ft | 221 kts | 246° |
| 2026-05-04 15:28 | 35.72027 | -0.33917 | 4604 ft | 220 kts | 247° |
| 2026-05-04 15:29 | 35.71433 | -0.35646 | 4362 ft | 218 kts | 247° |
| 2026-05-04 15:30 | 35.69131 | -0.42359 | 3393 ft | 201 kts | 247° |
| 2026-05-04 15:30 | 35.67646 | -0.46696 | 2690 ft | 164 kts | 247° |
| 2026-05-04 15:31 | 35.66803 | -0.49160 | 2319 ft | 152 kts | 247° |
| 2026-05-04 15:31 | 35.66401 | -0.50336 | 2067 ft | 145 kts | 248° |
| 2026-05-04 15:32 | 35.65282 | -0.53609 | 1541 ft | 146 kts | 249° |
| 2026-05-04 15:32 | 35.64514 | -0.55864 | 1106 ft | 136 kts | 249° |
| 2026-05-04 15:33 | 35.63773 | -0.58029 | 794 ft | 141 kts | 246° |
| 2026-05-04 15:34 | 35.62661 | -0.61294 | 321 ft | 129 kts | 246° |
| 2026-05-04 15:34 | 35.62341 | -0.62222 | 310 ft | 123 kts | 247° |
| 2026-05-04 15:34 | 35.61551 | -0.64598 | 1287 ft | 183 kts | 251° |
| 2026-05-04 15:35 | 35.60564 | -0.67444 | 2322 ft | 202 kts | 246° |
| 2026-05-04 15:35 | 35.59955 | -0.69070 | 2182 ft | 212 kts | 245° |
| 2026-05-04 15:35 | 35.59332 | -0.70718 | 1990 ft | 213 kts | 246° |
| 2026-05-04 15:36 | 35.57393 | -0.73099 | 1871 ft | 205 kts | 192° |
| 2026-05-04 15:36 | 35.55950 | -0.72860 | 1886 ft | 220 kts | 156° |
| 2026-05-04 15:36 | 35.54765 | -0.71643 | 1892 ft | 230 kts | 122° |
| 2026-05-04 15:37 | 35.54295 | -0.69791 | 1887 ft | 231 kts | 89° |
| 2026-05-04 15:37 | 35.54593 | -0.67871 | 1899 ft | 230 kts | 72° |
| 2026-05-04 15:37 | 35.55054 | -0.65984 | 1894 ft | 233 kts | 71° |
| 2026-05-04 15:37 | 35.55539 | -0.64087 | 1893 ft | 233 kts | 70° |
| 2026-05-04 15:38 | 35.56098 | -0.62225 | 1891 ft | 231 kts | 67° |
| 2026-05-04 15:38 | 35.56679 | -0.60395 | 1871 ft | 229 kts | 66° |
| 2026-05-04 15:38 | 35.57255 | -0.58569 | 1889 ft | 229 kts | 67° |
| 2026-05-04 15:38 | 35.57824 | -0.56755 | 2019 ft | 224 kts | 68° |
| 2026-05-04 15:39 | 35.58416 | -0.54924 | 2320 ft | 237 kts | 68° |
| 2026-05-04 15:39 | 35.59054 | -0.53024 | 2562 ft | 239 kts | 67° |
| 2026-05-04 15:39 | 35.60330 | -0.49278 | 3066 ft | 241 kts | 67° |
| 2026-05-04 15:40 | 35.60977 | -0.47401 | 3159 ft | 242 kts | 66° |
| 2026-05-04 15:40 | 35.61640 | -0.45470 | 3152 ft | 247 kts | 67° |
| 2026-05-04 15:40 | 35.62299 | -0.43556 | 3162 ft | 239 kts | 66° |
| 2026-05-04 15:40 | 35.62916 | -0.41761 | 3167 ft | 223 kts | 66° |
| 2026-05-04 15:41 | 35.63500 | -0.40061 | 3140 ft | 207 kts | 67° |
| 2026-05-04 15:41 | 35.64045 | -0.38469 | 3149 ft | 197 kts | 66° |
| 2026-05-04 15:41 | 35.64564 | -0.36901 | 3144 ft | 201 kts | 67° |
| 2026-05-04 15:41 | 35.65096 | -0.35303 | 3183 ft | 206 kts | 67° |
| 2026-05-04 15:42 | 35.65644 | -0.33666 | 3185 ft | 207 kts | 67° |
| 2026-05-04 15:42 | 35.66194 | -0.32025 | 3151 ft | 206 kts | 67° |
| 2026-05-04 15:42 | 35.66737 | -0.30413 | 3156 ft | 202 kts | 67° |
| 2026-05-04 15:42 | 35.67320 | -0.28835 | 3144 ft | 203 kts | 53° |
| 2026-05-04 15:43 | 35.68393 | -0.27806 | 3157 ft | 195 kts | 13° |
| 2026-05-04 15:43 | 35.69700 | -0.27825 | 3176 ft | 189 kts | 334° |
| 2026-05-04 15:43 | 35.70668 | -0.28833 | 3152 ft | 183 kts | 295° |
| 2026-05-04 15:43 | 35.70919 | -0.30334 | 3175 ft | 180 kts | 269° |
| 2026-05-04 15:44 | 35.70939 | -0.31866 | 3151 ft | 178 kts | 268° |
| 2026-05-04 15:44 | 35.70942 | -0.33368 | 3150 ft | 173 kts | 268° |
| 2026-05-04 15:44 | 35.70938 | -0.34882 | 3164 ft | 181 kts | 268° |
| 2026-05-04 15:44 | 35.70914 | -0.36436 | 3160 ft | 181 kts | 264° |
| 2026-05-04 15:45 | 35.70601 | -0.37906 | 3165 ft | 176 kts | 249° |
| 2026-05-04 15:45 | 35.70152 | -0.39298 | 3159 ft | 173 kts | 248° |
| 2026-05-04 15:45 | 35.69679 | -0.40696 | 3168 ft | 180 kts | 247° |
| 2026-05-04 15:45 | 35.69204 | -0.42087 | 3159 ft | 173 kts | 247° |
| 2026-05-04 15:46 | 35.68728 | -0.43480 | 3163 ft | 183 kts | 248° |
| 2026-05-04 15:46 | 35.68402 | -0.44436 | 3060 ft | 182 kts | 248° |
| 2026-05-04 15:46 | 35.67925 | -0.45831 | 2840 ft | 169 kts | 247° |
| 2026-05-04 15:46 | 35.67498 | -0.47085 | 2632 ft | 152 kts | 246° |
| 2026-05-04 15:47 | 35.67111 | -0.48219 | 2452 ft | 136 kts | 246° |
| 2026-05-04 15:47 | 35.66629 | -0.49633 | 2210 ft | 137 kts | 248° |
| 2026-05-04 15:47 | 35.66376 | -0.50375 | 2107 ft | 141 kts | 248° |
| 2026-05-04 15:47 | 35.65997 | -0.51490 | 1905 ft | 141 kts | 247° |
| 2026-05-04 15:48 | 35.65625 | -0.52580 | 1718 ft | 136 kts | 247° |
| 2026-05-04 15:48 | 35.65251 | -0.53666 | 1576 ft | 137 kts | 249° |
| 2026-05-04 15:48 | 35.64492 | -0.55910 | 1151 ft | 143 kts | 246° |
| 2026-05-04 15:49 | 35.64110 | -0.57030 | 929 ft | 138 kts | 247° |
| 2026-05-04 15:49 | 35.63740 | -0.58121 | 758 ft | 139 kts | 245° |
| 2026-05-04 15:49 | 35.63368 | -0.59218 | 592 ft | 141 kts | 247° |
| 2026-05-04 15:49 | 35.62988 | -0.60335 | 405 ft | 142 kts | 246° |
| 2026-05-04 15:50 | 35.62630 | -0.61386 | 310 ft | 122 kts | 249° |
| 2026-05-04 15:50 | 35.62378 | -0.62123 | 308 ft | 65 kts | 247° |
| 2026-05-04 15:50 | 35.62272 | -0.62422 | 309 ft | 15 kts | 238° |
| 2026-05-04 15:50 | 35.62182 | -0.62463 | 309 ft | 14 kts | 168° |
| 2026-05-04 15:51 | 35.62092 | -0.62418 | 308 ft | 14 kts | 157° |
| 2026-05-04 15:51 | 35.62006 | -0.62374 | 309 ft | 13 kts | 158° |
| 2026-05-04 15:51 | 35.61923 | -0.62332 | 308 ft | 13 kts | 157° |
| 2026-05-04 15:51 | 35.61846 | -0.62283 | 309 ft | 12 kts | 143° |
| 2026-05-04 15:52 | 35.61798 | -0.62199 | 309 ft | 12 kts | 106° |
| 2026-05-04 15:52 | 35.61803 | -0.62094 | 308 ft | 14 kts | 71° |
| 2026-05-04 15:52 | 35.61842 | -0.61977 | 309 ft | 15 kts | 67° |
| 2026-05-04 15:52 | 35.61882 | -0.61861 | 308 ft | 16 kts | 67° |
| 2026-05-04 15:53 | 35.61927 | -0.61728 | 309 ft | 18 kts | 67° |
| 2026-05-04 15:53 | 35.61979 | -0.61577 | 309 ft | 20 kts | 67° |
| 2026-05-04 15:53 | 35.62022 | -0.61445 | 308 ft | 11 kts | 75° |
| 2026-05-04 15:53 | 35.61993 | -0.61369 | 309 ft | 11 kts | 145° |
| 2026-05-04 15:54 | 35.61948 | -0.61302 | 309 ft | 9 kts | 128° |
| 2026-05-04 15:54 | 35.61949 | -0.61256 | 309 ft | 4 kts | 91° |
| 2026-05-04 15:54 | 35.61932 | -0.61224 | 308 ft | 6 kts | 131° |
| 2026-05-04 15:54 | 35.61906 | -0.61189 | 309 ft | 3 kts | 133° |
| 2026-05-04 15:55 | 35.61901 | -0.61183 | 309 ft | 0 kts | 133° |
| 2026-05-04 16:01 | 35.70941 | -0.32916 | 309 ft | 139 kts | 268° |